Time;durP1;ratioP1;P1;durP2;ratioP2;P2;SDS_P1;SDS_P2;PMS_P1;PMS_P2;Temp;Humidity;BMP_temperature;BMP_pressure;BME280_temperature;BME280_humidity;BME280_pressure;Samples;Min_cycle;Max_cycle;Signal;HPM_P1;HPM_P2
2022/04/21 00:29:15;;;;;;;7.65;2.90;;;22.60;75.20;;;;;;5131374;27;20423;-72
2022/04/21 00:31:41;;;;;;;6.50;3.30;;;22.70;75.90;;;;;;5129765;27;20099;-72
2022/04/21 00:34:09;;;;;;;7.20;3.95;;;22.80;75.70;;;;;;5131131;27;20022;-71
2022/04/21 00:36:36;;;;;;;6.57;3.67;;;22.80;75.50;;;;;;5127334;28;20458;-71
2022/04/21 00:39:02;;;;;;;4.82;3.03;;;22.80;75.30;;;;;;5129945;27;20023;-73
2022/04/21 00:41:29;;;;;;;9.30;4.18;;;22.80;75.10;;;;;;5129002;27;20073;-71
2022/04/21 00:43:55;;;;;;;9.63;3.92;;;22.90;75.10;;;;;;5129081;27;20023;-73
2022/04/21 00:46:22;;;;;;;8.50;4.30;;;22.80;74.90;;;;;;5129538;27;20043;-71
2022/04/21 00:48:50;;;;;;;7.90;3.38;;;22.90;74.90;;;;;;5128667;27;20081;-71
2022/04/21 00:51:17;;;;;;;10.85;3.58;;;22.90;74.90;;;;;;5128203;27;20008;-71
2022/04/21 00:53:44;;;;;;;11.23;3.30;;;22.80;74.80;;;;;;5130992;27;20087;-71
2022/04/21 00:56:11;;;;;;;8.77;4.10;;;22.90;74.80;;;;;;5125642;28;20016;-71
2022/04/21 00:58:39;;;;;;;9.32;3.72;;;22.80;74.80;;;;;;5128002;27;20023;-71
2022/04/21 01:02:46;;;;;;;6.28;3.25;;;22.90;74.80;;;;;;5125659;27;20023;-71
2022/04/21 01:03:52;;;;;;;6.28;2.53;;;22.80;74.80;;;;;;5132393;27;20038;-72
2022/04/21 01:06:19;;;;;;;9.13;3.50;;;22.80;74.70;;;;;;5126472;28;20031;-71
2022/04/21 01:08:46;;;;;;;9.15;3.30;;;22.80;74.80;;;;;;5127168;27;20355;-71
2022/04/21 01:11:13;;;;;;;8.70;3.15;;;22.80;74.80;;;;;;5130198;27;20035;-72
2022/04/21 01:13:40;;;;;;;13.73;4.25;;;22.80;74.80;;;;;;5125737;27;20058;-71
2022/04/21 01:16:06;;;;;;;10.48;4.03;;;22.80;74.90;;;;;;5126193;27;20043;-73
2022/04/21 01:18:33;;;;;;;9.95;4.40;;;22.80;74.90;;;;;;5129531;27;20015;-73
2022/04/21 01:21:00;;;;;;;10.48;3.70;;;22.80;74.90;;;;;;5129763;27;20019;-72
2022/04/21 01:23:27;;;;;;;11.85;3.70;;;22.80;74.90;;;;;;5128183;27;20430;-73
2022/04/21 01:25:54;;;;;;;12.85;4.80;;;22.80;74.90;;;;;;5126137;28;20018;-70
2022/04/21 01:28:21;;;;;;;11.38;4.00;;;22.70;74.80;;;;;;5124284;27;20039;-72
2022/04/21 01:30:48;;;;;;;11.95;3.28;;;22.70;74.80;;;;;;5112141;27;20050;-71
2022/04/21 01:33:14;;;;;;;8.38;3.33;;;22.70;74.80;;;;;;5113105;27;20473;-73
2022/04/21 01:35:41;;;;;;;9.98;3.53;;;22.70;74.90;;;;;;5114441;27;20035;-71
2022/04/21 01:41:10;;;;;;;12.87;4.07;;;22.60;75.40;;;;;;5106880;27;20038;-73
2022/04/21 01:43:37;;;;;;;10.27;4.10;;;22.70;75.50;;;;;;5111474;27;20594;-71
2022/04/21 01:46:04;;;;;;;15.18;4.25;;;22.60;74.80;;;;;;5113768;27;20019;-73
2022/04/21 01:48:31;;;;;;;9.18;3.53;;;22.60;74.80;;;;;;5112818;27;20015;-71
2022/04/21 01:50:57;;;;;;;9.98;3.20;;;22.60;74.70;;;;;;5113093;27;20438;-74
2022/04/21 01:53:24;;;;;;;12.90;4.00;;;22.60;74.80;;;;;;5113575;27;20030;-73
2022/04/21 01:55:51;;;;;;;10.95;3.40;;;22.60;74.80;;;;;;5115238;27;20351;-71
2022/04/21 01:58:18;;;;;;;13.20;3.63;;;22.50;74.60;;;;;;5112458;27;20039;-73
2022/04/21 02:00:44;;;;;;;17.52;4.75;;;22.50;74.70;;;;;;5111317;28;20650;-72
2022/04/21 02:03:11;;;;;;;10.60;4.00;;;22.50;74.70;;;;;;5115154;27;20073;-71
2022/04/21 02:05:37;;;;;;;10.57;3.60;;;22.50;74.70;;;;;;5113550;27;20035;-72
2022/04/21 02:08:04;;;;;;;8.05;2.60;;;22.50;74.60;;;;;;5113318;27;20111;-72
2022/04/21 02:10:30;;;;;;;14.18;4.40;;;22.50;74.60;;;;;;5112487;27;20491;-74
2022/04/21 02:12:58;;;;;;;15.80;3.70;;;22.40;74.50;;;;;;5112739;27;20153;-72
2022/04/21 02:15:24;;;;;;;10.80;4.25;;;22.40;74.60;;;;;;5113960;27;20138;-71
2022/04/21 02:17:51;;;;;;;7.85;2.95;;;22.40;74.60;;;;;;5110001;28;20032;-72
2022/04/21 02:20:18;;;;;;;10.48;4.65;;;22.40;74.50;;;;;;5117031;27;20030;-74
2022/04/21 02:22:45;;;;;;;9.68;3.85;;;22.40;74.60;;;;;;5113051;27;20125;-71
2022/04/21 02:25:14;;;;;;;14.43;3.20;;;22.40;74.60;;;;;;5118167;27;20027;-72
2022/04/21 02:27:44;;;;;;;16.70;4.50;;;22.40;74.60;;;;;;5111614;27;20527;-70
2022/04/21 02:30:13;;;;;;;15.07;3.83;;;22.40;74.50;;;;;;5112799;27;20027;-73
2022/04/21 02:32:40;;;;;;;8.55;4.00;;;22.40;74.40;;;;;;5110080;28;20026;-72
2022/04/21 02:35:07;;;;;;;12.23;3.58;;;22.30;74.40;;;;;;5111607;27;20103;-73
2022/04/21 02:37:38;;;;;;;14.20;3.78;;;22.30;74.50;;;;;;5115022;27;20032;-71
2022/04/21 02:40:06;;;;;;;8.52;2.78;;;22.30;74.40;;;;;;5111392;27;20034;-74
2022/04/21 02:42:33;;;;;;;11.40;3.58;;;22.30;74.40;;;;;;5116401;27;20023;-70
2022/04/21 02:45:00;;;;;;;12.75;4.68;;;22.30;74.40;;;;;;5111239;27;20019;-72
2022/04/21 02:47:27;;;;;;;11.07;3.80;;;22.30;74.40;;;;;;5111179;28;20031;-73
2022/04/21 02:49:54;;;;;;;14.55;4.35;;;22.30;74.40;;;;;;5114017;27;20031;-74
2022/04/21 02:52:21;;;;;;;15.32;3.97;;;22.30;74.50;;;;;;5109958;27;20027;-71
2022/04/21 02:57:33;;;;;;;21.02;12.07;;;22.20;74.50;;;;;;5107710;27;20503;-74
2022/04/21 03:00:05;;;;;;;16.38;10.82;;;22.20;74.50;;;;;;5109176;27;20050;-73
2022/04/21 03:02:31;;;;;;;21.65;8.95;;;22.30;74.50;;;;;;5109189;27;20027;-73
2022/04/21 03:04:58;;;;;;;11.23;5.97;;;22.20;74.40;;;;;;5111136;27;20020;-73
2022/04/21 03:07:24;;;;;;;12.82;4.97;;;22.20;74.40;;;;;;5111612;27;20027;-71
2022/04/21 03:09:53;;;;;;;14.32;4.93;;;22.20;74.50;;;;;;5109608;27;20019;-74
2022/04/21 03:12:22;;;;;;;10.68;4.30;;;22.20;74.60;;;;;;5110174;27;20114;-71
2022/04/21 03:14:51;;;;;;;11.68;5.95;;;22.20;74.60;;;;;;5106332;27;20020;-71
2022/04/21 03:17:17;;;;;;;11.93;4.25;;;22.20;74.60;;;;;;5104673;27;20042;-71
2022/04/21 03:19:44;;;;;;;10.30;3.60;;;22.20;74.70;;;;;;5105169;27;20020;-70
2022/04/21 03:25:03;;;;;;;13.38;4.53;;;22.20;74.80;;;;;;5110771;27;20086;-72
2022/04/21 03:27:30;;;;;;;11.68;3.97;;;22.20;74.80;;;;;;5109660;27;20054;-71
2022/04/21 03:30:10;;;;;;;12.38;4.55;;;22.20;74.70;;;;;;5112220;27;20496;-71
2022/04/21 03:32:37;;;;;;;8.88;3.88;;;22.20;74.80;;;;;;5111172;27;20019;-72
2022/04/21 03:35:05;;;;;;;14.10;3.95;;;22.20;74.70;;;;;;5104595;27;20019;-74
2022/04/21 03:37:31;;;;;;;8.80;3.83;;;22.10;74.70;;;;;;5108143;27;20046;-72
2022/04/21 03:39:58;;;;;;;6.65;3.50;;;22.10;74.70;;;;;;5111053;27;20016;-73
2022/04/21 03:42:28;;;;;;;14.13;4.25;;;22.10;74.80;;;;;;5109393;27;20031;-72
2022/04/21 03:44:55;;;;;;;9.73;3.72;;;22.10;74.80;;;;;;5109622;28;20016;-73
2022/04/21 03:47:22;;;;;;;16.55;4.25;;;22.10;74.80;;;;;;5110230;28;20026;-73
2022/04/21 03:49:49;;;;;;;10.65;3.92;;;22.00;74.80;;;;;;5110891;27;20498;-71
2022/04/21 03:52:17;;;;;;;11.35;4.50;;;22.00;74.80;;;;;;5110170;27;20383;-71
2022/04/21 03:54:44;;;;;;;8.90;3.40;;;22.00;74.90;;;;;;5109665;27;20497;-73
2022/04/21 03:57:10;;;;;;;8.25;3.08;;;22.00;74.90;;;;;;5116008;27;20031;-73
2022/04/21 03:59:37;;;;;;;11.60;6.05;;;22.00;75.00;;;;;;5109541;27;20057;-76
2022/04/21 04:02:04;;;;;;;17.83;10.70;;;22.00;75.10;;;;;;5111202;27;20536;-70
2022/04/21 04:04:33;;;;;;;13.90;5.50;;;22.00;75.40;;;;;;5111936;27;20482;-76
2022/04/21 04:12:34;;;;;;;15.65;6.38;;;21.80;76.90;;;;;;5109060;28;19960;-70
2022/04/21 04:15:01;;;;;;;14.52;6.25;;;21.80;77.10;;;;;;5111679;28;20031;-70
2022/04/21 04:17:28;;;;;;;23.52;14.95;;;21.90;77.30;;;;;;5110121;28;20035;-68
2022/04/21 04:19:55;;;;;;;24.02;18.00;;;21.90;77.20;;;;;;5092833;28;20076;-69
2022/04/21 04:22:21;;;;;;;14.98;8.23;;;21.80;77.00;;;;;;5113216;28;20015;-71
2022/04/21 04:24:53;;;;;;;14.65;5.93;;;21.80;76.30;;;;;;5108614;28;20485;-66
2022/04/21 04:27:24;;;;;;;10.35;4.90;;;21.80;76.30;;;;;;5112064;28;20044;-68
2022/04/21 04:29:51;;;;;;;19.00;6.97;;;21.80;76.50;;;;;;5111203;28;20027;-70
2022/04/21 04:32:17;;;;;;;17.25;11.07;;;21.80;76.50;;;;;;5112511;28;20106;-71
2022/04/21 04:34:44;;;;;;;18.45;11.30;;;21.80;76.50;;;;;;5110261;28;20031;-70
2022/04/21 04:37:11;;;;;;;12.52;6.78;;;21.80;76.40;;;;;;5107189;28;20032;-70
2022/04/21 04:39:38;;;;;;;10.85;5.78;;;21.80;76.30;;;;;;5110657;28;20026;-70
2022/04/21 04:42:17;;;;;;;11.48;5.28;;;21.80;76.30;;;;;;5110915;28;20032;-70
2022/04/21 04:44:44;;;;;;;12.20;5.78;;;21.80;76.20;;;;;;5112585;28;20106;-70
2022/04/21 04:47:11;;;;;;;14.45;4.95;;;21.80;76.10;;;;;;5110718;28;20016;-70
2022/04/21 04:49:37;;;;;;;13.32;5.35;;;21.80;76.10;;;;;;5112042;28;20080;-69
2022/04/21 04:52:05;;;;;;;10.30;4.82;;;21.80;75.90;;;;;;5111025;28;20170;-71
2022/04/21 04:54:32;;;;;;;16.35;5.35;;;21.80;76.00;;;;;;5110815;28;20079;-70
2022/04/21 04:56:59;;;;;;;10.23;5.50;;;21.80;76.00;;;;;;5111297;28;20020;-69
2022/04/21 04:59:27;;;;;;;13.02;5.22;;;21.80;75.90;;;;;;5110096;28;20654;-69
2022/04/21 05:01:53;;;;;;;10.27;5.22;;;21.80;75.90;;;;;;5111323;28;20031;-69
2022/04/21 05:04:21;;;;;;;11.45;5.70;;;21.80;75.90;;;;;;5114015;27;20383;-69
2022/04/21 05:06:52;;;;;;;10.25;5.15;;;21.80;76.00;;;;;;5115300;27;20027;-70
2022/04/21 05:09:20;;;;;;;14.65;5.47;;;21.80;76.00;;;;;;5115491;27;20023;-69
2022/04/21 05:11:52;;;;;;;14.73;5.78;;;21.80;76.10;;;;;;5116030;27;20020;-69
2022/04/21 05:14:20;;;;;;;13.90;6.25;;;21.80;76.20;;;;;;5115821;27;20027;-69
2022/04/21 05:16:47;;;;;;;19.08;5.35;;;21.70;76.20;;;;;;5110661;27;20047;-69
2022/04/21 05:19:19;;;;;;;14.82;6.05;;;21.70;76.20;;;;;;5113012;27;20015;-69
2022/04/21 05:21:46;;;;;;;11.68;5.07;;;21.70;76.20;;;;;;5114976;27;20153;-69
2022/04/21 05:24:14;;;;;;;11.57;5.32;;;21.70;76.10;;;;;;5114061;27;20020;-70
2022/04/21 05:26:41;;;;;;;12.55;6.43;;;21.80;76.20;;;;;;5113289;28;20027;-69
2022/04/21 05:32:01;;;;;;;17.77;6.22;;;21.70;76.10;;;;;;5114192;27;20034;-70
2022/04/21 05:34:30;;;;;;;20.35;6.18;;;21.80;76.30;;;;;;5114355;27;20115;-72
2022/04/21 05:36:58;;;;;;;13.55;6.32;;;21.80;76.50;;;;;;5112564;28;20107;-69
2022/04/21 05:39:26;;;;;;;9.80;5.68;;;21.70;76.60;;;;;;5116091;27;20123;-70
2022/04/21 05:41:53;;;;;;;12.90;5.85;;;21.70;76.70;;;;;;5114578;27;20020;-70
2022/04/21 05:44:21;;;;;;;14.60;6.53;;;21.70;76.70;;;;;;5116364;27;20070;-70
2022/04/21 05:46:48;;;;;;;10.98;6.60;;;21.70;77.00;;;;;;5115369;27;20501;-70
2022/04/21 05:49:14;;;;;;;14.48;6.35;;;21.70;76.90;;;;;;5114265;27;20024;-71
2022/04/21 05:51:46;;;;;;;15.20;6.55;;;21.70;76.90;;;;;;5107157;28;20019;-70
2022/04/21 05:54:14;;;;;;;13.82;6.22;;;21.70;76.90;;;;;;5112146;27;20019;-69
2022/04/21 05:56:41;;;;;;;13.07;6.38;;;21.70;76.90;;;;;;5116874;27;20039;-70
2022/04/21 05:59:07;;;;;;;11.15;7.18;;;21.70;76.90;;;;;;5113092;27;20527;-70
2022/04/21 06:01:35;;;;;;;14.65;6.97;;;21.70;76.90;;;;;;5112391;28;20136;-70
2022/04/21 06:04:01;;;;;;;14.30;6.18;;;21.70;77.00;;;;;;5113560;27;20036;-70
2022/04/21 06:06:28;;;;;;;11.02;6.57;;;21.70;77.10;;;;;;5114773;27;20087;-70
2022/04/21 06:08:54;;;;;;;12.75;6.43;;;21.70;77.10;;;;;;5115137;27;20761;-70
2022/04/21 08:21:26;;;;;;;7.38;3.38;;;22.20;76.30;;;;;;5092390;27;20443;-66
2022/04/21 08:32:33;;;;;;;9.35;2.72;;;22.50;74.70;;;;;;5073399;28;20024;-71
2022/04/21 08:34:53;;;;;;;6.87;2.07;;;22.80;73.30;;;;;;5079403;28;20127;-67
2022/04/21 08:37:19;;;;;;;6.72;2.08;;;22.90;72.80;;;;;;5070718;28;20021;-72
2022/04/21 08:39:46;;;;;;;13.45;3.63;;;22.90;72.90;;;;;;5082236;28;20020;-75
2022/04/21 08:42:15;;;;;;;6.55;2.10;;;23.00;72.90;;;;;;5076916;28;20028;-76
2022/04/21 08:44:45;;;;;;;7.07;2.20;;;23.00;72.60;;;;;;5074374;28;20494;-73
2022/04/21 08:47:15;;;;;;;6.03;1.67;;;23.00;72.00;;;;;;5076268;28;20375;-72
2022/04/21 08:49:47;;;;;;;11.95;2.00;;;23.10;71.70;;;;;;5074364;28;20040;-71
2022/04/21 08:52:14;;;;;;;7.95;2.65;;;23.10;71.60;;;;;;5076967;28;20025;-72
2022/04/21 08:54:42;;;;;;;4.65;1.95;;;23.20;71.50;;;;;;5082556;28;20016;-71
2022/04/21 08:57:10;;;;;;;7.53;2.08;;;23.20;71.40;;;;;;5075897;28;20108;-71
2022/04/21 08:59:36;;;;;;;6.13;2.10;;;23.20;71.10;;;;;;5070566;28;20096;-73
2022/04/21 09:02:03;;;;;;;11.20;2.33;;;23.30;70.90;;;;;;5077196;28;20118;-77
2022/04/21 09:04:30;;;;;;;6.80;1.88;;;23.30;70.80;;;;;;5079614;28;20457;-71
2022/04/21 09:07:12;;;;;;;5.20;2.22;;;23.40;70.70;;;;;;5068576;28;20027;-74
2022/04/21 09:09:39;;;;;;;6.03;2.08;;;23.40;70.60;;;;;;5070376;28;20483;-76
2022/04/21 09:12:06;;;;;;;10.95;2.33;;;23.50;70.50;;;;;;5078517;28;20104;-77
2022/04/21 09:14:32;;;;;;;5.55;2.50;;;23.50;70.30;;;;;;5075672;28;20029;-76
2022/04/21 09:17:07;;;;;;;7.95;2.13;;;23.60;70.10;;;;;;5076543;28;20112;-77
2022/04/21 09:19:34;;;;;;;4.32;2.05;;;23.60;69.80;;;;;;5068921;28;20135;-77
2022/04/21 09:22:00;;;;;;;8.30;3.65;;;23.60;69.70;;;;;;5064720;28;20475;-77
2022/04/21 09:24:28;;;;;;;13.98;2.92;;;23.70;69.50;;;;;;5069372;28;20021;-77
2022/04/21 09:26:57;;;;;;;5.72;2.80;;;23.70;69.30;;;;;;5062142;28;20126;-71
2022/04/21 09:29:24;;;;;;;11.15;2.58;;;23.70;69.00;;;;;;5057605;28;20060;-76
2022/04/21 09:31:59;;;;;;;3.53;1.65;;;23.70;69.00;;;;;;5061468;28;20035;-76
2022/04/21 09:34:25;;;;;;;;;;;23.80;69.00;;;;;;5068255;28;20020;-76
2022/04/21 09:36:58;;;;;;;6.40;2.05;;;23.80;68.90;;;;;;5054659;28;19999;-76
2022/04/21 09:39:27;;;;;;;6.28;1.83;;;23.80;68.60;;;;;;5057187;28;20056;-71
2022/04/21 09:41:54;;;;;;;3.47;1.33;;;23.90;68.30;;;;;;5063126;28;20024;-76
2022/04/21 09:47:28;;;;;;;8.10;2.23;;;24.00;68.10;;;;;;5065816;28;20079;-68
2022/04/21 09:49:57;;;;;;;7.28;2.03;;;24.00;67.70;;;;;;5058081;28;20036;-71
2022/04/21 09:52:28;;;;;;;8.13;2.05;;;24.00;67.70;;;;;;5067503;28;20423;-75
2022/04/21 09:54:55;;;;;;;10.60;2.05;;;24.10;67.70;;;;;;5061749;28;20086;-72
2022/04/21 09:57:32;;;;;;;10.57;1.65;;;24.20;67.90;;;;;;5059397;28;20078;-72
2022/04/21 09:59:59;;;;;;;6.63;1.73;;;24.20;67.40;;;;;;5064700;28;20099;-71
2022/04/21 10:02:33;;;;;;;7.70;1.95;;;24.20;66.80;;;;;;5059153;28;20020;-73
2022/04/21 10:04:59;;;;;;;7.70;1.85;;;24.30;66.20;;;;;;5062408;28;20013;-75
2022/04/21 10:07:28;;;;;;;10.15;2.10;;;24.30;66.00;;;;;;5055879;28;20028;-77
2022/04/21 10:09:55;;;;;;;6.57;1.42;;;24.30;65.90;;;;;;5057947;28;20032;-73
2022/04/21 10:12:22;;;;;;;15.55;2.42;;;24.30;65.50;;;;;;5061249;28;20475;-76
2022/04/21 10:14:49;;;;;;;10.52;1.90;;;24.30;65.40;;;;;;5056773;28;20021;-66
2022/04/21 10:17:15;;;;;;;13.98;2.78;;;24.40;65.60;;;;;;5067496;28;20016;-76
2022/04/21 10:19:42;;;;;;;15.52;2.70;;;24.40;65.50;;;;;;5055268;28;20131;-67
2022/04/21 10:22:14;;;;;;;5.70;1.48;;;24.50;65.50;;;;;;5058484;28;20052;-68
2022/04/21 10:24:41;;;;;;;7.85;2.33;;;24.40;65.40;;;;;;5062451;28;20017;-65
2022/04/21 10:27:37;;;;;;;9.98;2.03;;;24.50;65.20;;;;;;5061890;28;20104;-65
2022/04/21 10:30:15;;;;;;;7.90;1.98;;;24.60;64.80;;;;;;5060288;28;20033;-72
2022/04/21 10:32:55;;;;;;;5.20;2.05;;;24.60;64.70;;;;;;5057180;28;20062;-66
2022/04/21 10:35:27;;;;;;;6.95;1.52;;;24.60;64.70;;;;;;5059770;28;20029;-71
2022/04/21 10:38:19;;;;;;;8.32;1.50;;;24.70;64.70;;;;;;5058079;28;20167;-72
2022/04/21 10:41:00;;;;;;;5.57;1.70;;;24.70;64.60;;;;;;5057599;28;20119;-71
2022/04/21 10:43:53;;;;;;;6.95;1.80;;;24.80;64.60;;;;;;5064037;28;20104;-73
2022/04/21 10:46:22;;;;;;;7.22;1.98;;;24.80;64.50;;;;;;5055434;28;20079;-65
2022/04/21 10:48:51;;;;;;;4.90;1.40;;;24.90;64.20;;;;;;5057307;28;20040;-67
2022/04/21 10:57:12;;;;;;;5.88;2.30;;;24.90;64.10;;;;;;5062497;28;20478;-69
2022/04/21 10:57:39;;;;;;;4.15;1.40;;;25.00;63.70;;;;;;5060608;28;20051;-67
2022/04/21 11:00:30;;;;;;;8.68;1.92;;;25.10;63.50;;;;;;5062303;28;20075;-74
2022/04/21 11:03:10;;;;;;;7.40;1.52;;;25.20;63.40;;;;;;5057752;28;20409;-69
2022/04/21 11:05:37;;;;;;;7.05;2.03;;;25.20;62.90;;;;;;5054270;28;20029;-69
2022/04/21 11:08:30;;;;;;;7.75;1.55;;;25.20;62.60;;;;;;5057326;28;20021;-72
2022/04/21 11:10:57;;;;;;;13.13;1.77;;;25.30;62.40;;;;;;5061684;28;20081;-68
2022/04/21 11:14:03;;;;;;;10.40;2.22;;;25.30;62.00;;;;;;5069705;28;20107;-68
2022/04/21 11:16:45;;;;;;;7.93;1.58;;;25.40;62.40;;;;;;5047522;28;20037;-67
2022/04/21 11:19:52;;;;;;;5.97;2.28;;;25.50;62.50;;;;;;5056830;28;20360;-66
2022/04/21 11:22:42;;;;;;;3.78;1.05;;;25.50;62.70;;;;;;5047096;28;20040;-65
2022/04/21 11:25:11;;;;;;;4.25;1.40;;;25.60;62.10;;;;;;5054780;28;20029;-69
2022/04/21 11:27:43;;;;;;;6.43;1.38;;;25.60;62.10;;;;;;5055815;28;20029;-76
2022/04/21 11:30:17;;;;;;;5.85;1.38;;;25.70;61.80;;;;;;5065294;28;20093;-70
2022/04/21 11:32:53;;;;;;;6.85;1.20;;;25.70;61.80;;;;;;5056089;28;20062;-66
2022/04/21 11:35:22;;;;;;;5.07;1.48;;;25.80;61.40;;;;;;5060387;28;20029;-70
2022/04/21 11:37:58;;;;;;;4.40;1.20;;;25.80;61.10;;;;;;5052937;28;20026;-66
2022/04/21 11:40:26;;;;;;;4.40;1.17;;;25.80;61.10;;;;;;5058881;28;20032;-68
2022/04/21 11:42:54;;;;;;;4.65;1.20;;;25.90;61.10;;;;;;5059663;28;20071;-78
2022/04/21 11:45:23;;;;;;;5.22;2.20;;;25.90;60.90;;;;;;5052189;28;20029;-69
2022/04/21 11:47:50;;;;;;;4.35;1.50;;;25.90;60.80;;;;;;5065096;28;20040;-77
2022/04/21 11:50:20;;;;;;;9.73;1.63;;;26.00;60.60;;;;;;5058251;28;20036;-77
2022/04/21 11:52:52;;;;;;;4.25;1.02;;;26.00;60.40;;;;;;5056970;28;20489;-76
2022/04/21 11:55:20;;;;;;;7.40;1.88;;;26.00;60.00;;;;;;5061995;28;20025;-77
2022/04/21 11:57:48;;;;;;;2.90;1.52;;;26.10;60.60;;;;;;5065841;28;20089;-77
2022/04/21 12:00:16;;;;;;;6.82;1.45;;;26.10;60.50;;;;;;5062213;28;20092;-77
2022/04/21 12:08:15;;;;;;;8.75;2.10;;;26.20;60.00;;;;;;5063107;28;20039;-78
2022/04/21 12:10:42;;;;;;;5.60;1.45;;;26.20;59.90;;;;;;5061341;28;20136;-77
2022/04/21 12:13:09;;;;;;;23.83;2.95;;;26.30;59.80;;;;;;5057666;28;20021;-77
2022/04/21 12:15:39;;;;;;;19.70;3.38;;;26.30;59.60;;;;;;5055607;28;20411;-77
2022/04/21 12:18:06;;;;;;;15.40;2.15;;;26.30;59.50;;;;;;5058704;28;20103;-76
2022/04/21 12:20:32;;;;;;;3.70;0.93;;;26.30;59.00;;;;;;5060580;28;20094;-77
2022/04/21 12:22:59;;;;;;;9.05;1.58;;;26.30;59.00;;;;;;5054386;28;20032;-77
2022/04/21 12:25:32;;;;;;;4.03;1.00;;;26.30;58.70;;;;;;5061296;28;20032;-77
2022/04/21 12:28:04;;;;;;;6.07;1.52;;;26.30;58.50;;;;;;5053823;28;20021;-77
2022/04/21 12:30:30;;;;;;;2.35;1.00;;;26.30;58.10;;;;;;5058552;28;20483;-77
2022/04/21 12:32:57;;;;;;;3.53;1.50;;;26.30;58.30;;;;;;5062938;28;20042;-75
2022/04/21 12:35:49;;;;;;;10.35;2.55;;;26.30;58.30;;;;;;5058138;28;20021;-78
2022/04/21 12:41:02;;;;;;;3.72;0.90;;;26.30;58.20;;;;;;5058553;28;20590;-78
2022/04/21 12:43:30;;;;;;;5.15;1.35;;;26.30;57.90;;;;;;5061195;28;20020;-77
2022/04/21 12:45:58;;;;;;;8.15;2.00;;;26.30;58.10;;;;;;5056528;28;20094;-76
2022/04/21 12:48:26;;;;;;;4.35;1.40;;;26.30;58.00;;;;;;5058672;28;20472;-77
2022/04/21 12:50:54;;;;;;;8.45;1.75;;;26.30;57.90;;;;;;5058970;28;20029;-76
2022/04/21 12:53:31;;;;;;;7.25;1.25;;;26.30;57.80;;;;;;5052982;28;20108;-77
2022/04/21 12:56:12;;;;;;;17.90;1.73;;;26.30;57.70;;;;;;5056910;28;20071;-77
2022/04/21 12:58:39;;;;;;;2.88;1.10;;;26.30;57.90;;;;;;5066160;28;20028;-76
2022/04/21 13:01:08;;;;;;;4.45;1.30;;;26.30;57.50;;;;;;5058770;28;20023;-77
2022/04/21 13:03:35;;;;;;;3.35;1.60;;;26.30;57.50;;;;;;5061004;28;20487;-77
2022/04/21 13:06:01;;;;;;;5.38;0.98;;;26.30;57.40;;;;;;5069408;28;20040;-77
2022/04/21 13:08:29;;;;;;;2.25;0.98;;;26.30;57.50;;;;;;5063964;28;20582;-77
2022/04/21 13:10:57;;;;;;;7.38;1.73;;;26.30;57.50;;;;;;5063735;28;20532;-75
2022/04/21 13:13:26;;;;;;;11.88;1.25;;;26.30;57.70;;;;;;5069292;28;20475;-77
2022/04/21 13:15:53;;;;;;;9.70;1.67;;;26.30;57.70;;;;;;5061309;28;20483;-77
2022/04/21 13:18:19;;;;;;;9.35;1.50;;;26.30;57.80;;;;;;5060112;28;20085;-77
2022/04/21 13:23:31;;;;;;;2.03;1.08;;;26.30;57.10;;;;;;5065576;28;20044;-76
2022/04/21 13:26:00;;;;;;;3.75;1.60;;;26.30;56.90;;;;;;5061283;28;20029;-77
2022/04/21 13:28:27;;;;;;;3.95;1.58;;;26.20;56.50;;;;;;5056105;28;20033;-74
2022/04/21 13:33:38;;;;;;;6.57;1.40;;;26.20;56.40;;;;;;5061450;28;20059;-75
2022/04/21 13:36:06;;;;;;;3.60;1.60;;;26.20;56.40;;;;;;5070523;28;20024;-70
2022/04/21 13:38:33;;;;;;;2.17;0.98;;;26.10;56.20;;;;;;5054981;28;20040;-74
2022/04/21 13:41:00;;;;;;;5.40;1.40;;;26.10;56.00;;;;;;5060826;28;20086;-76
2022/04/21 13:43:29;;;;;;;4.05;1.60;;;26.10;55.80;;;;;;5053706;28;20028;-75
2022/04/21 13:45:57;;;;;;;3.42;1.33;;;26.10;55.80;;;;;;5060613;28;20025;-77
2022/04/21 13:48:25;;;;;;;4.82;1.08;;;26.10;56.30;;;;;;5058938;28;20029;-75
2022/04/21 13:50:51;;;;;;;9.75;1.50;;;26.10;55.60;;;;;;5058248;28;20082;-78
2022/04/21 13:53:18;;;;;;;21.45;3.08;;;26.00;55.60;;;;;;5063939;28;20033;-77
2022/04/21 13:55:45;;;;;;;9.05;2.05;;;26.00;55.50;;;;;;5062541;28;20032;-78
2022/04/21 13:58:14;;;;;;;8.48;1.88;;;26.00;55.70;;;;;;5071526;28;20505;-77
2022/04/21 14:00:45;;;;;;;12.00;1.63;;;25.90;56.00;;;;;;5065662;28;20040;-77
2022/04/21 16:21:33;;;;;;;6.82;1.40;;;24.00;57.00;;;;;;5119252;27;20337;-73
2022/04/21 16:24:01;;;;;;;3.30;1.48;;;24.00;57.60;;;;;;5091285;28;20020;-75
2022/04/21 16:26:27;;;;;;;9.00;1.65;;;24.00;57.40;;;;;;5098837;28;20092;-70
2022/04/21 16:28:54;;;;;;;4.45;1.65;;;24.00;57.10;;;;;;5099809;28;20027;-77
2022/04/21 16:31:21;;;;;;;7.15;1.63;;;24.10;57.00;;;;;;5097738;28;20028;-75
2022/04/21 16:33:47;;;;;;;12.70;4.65;;;24.10;56.80;;;;;;5097421;28;20110;-76
2022/04/21 16:36:14;;;;;;;5.28;4.00;;;24.10;56.60;;;;;;5092570;28;20023;-77
2022/04/21 16:38:40;;;;;;;6.38;3.50;;;24.10;56.60;;;;;;5104517;28;20024;-74
2022/04/21 16:41:07;;;;;;;10.73;3.13;;;24.10;56.50;;;;;;5102048;28;20073;-74
2022/04/21 16:43:34;;;;;;;5.10;2.58;;;24.10;56.40;;;;;;5100134;28;20016;-77
2022/04/21 16:46:01;;;;;;;12.07;7.72;;;24.00;56.40;;;;;;5098812;28;20028;-70
2022/04/21 16:48:27;;;;;;;11.30;6.97;;;24.00;56.40;;;;;;5093264;28;20013;-69
2022/04/21 16:50:54;;;;;;;8.35;4.22;;;24.00;56.50;;;;;;5103155;28;20024;-72
2022/04/21 16:53:23;;;;;;;6.03;3.10;;;24.00;56.40;;;;;;5099935;28;20074;-71
2022/04/21 16:55:49;;;;;;;7.32;1.90;;;23.90;56.20;;;;;;5098434;28;20028;-75
2022/04/21 16:58:16;;;;;;;5.60;1.98;;;23.90;56.30;;;;;;5099228;28;20023;-68
2022/04/21 17:03:27;;;;;;;4.72;2.08;;;23.80;56.20;;;;;;5101219;28;20081;-84
2022/04/21 17:05:54;;;;;;;4.97;1.63;;;23.80;56.10;;;;;;5092560;28;20013;-76
2022/04/21 17:08:20;;;;;;;6.40;4.35;;;23.80;56.00;;;;;;5093101;28;20078;-76
2022/04/21 17:10:58;;;;;;;12.48;9.32;;;23.80;56.00;;;;;;5093820;28;20024;-72
2022/04/21 17:13:25;;;;;;;14.73;12.60;;;23.70;55.90;;;;;;5096849;28;20513;-69
2022/04/21 17:16:10;;;;;;;15.23;13.68;;;23.70;56.00;;;;;;5093444;28;20555;-71
2022/04/21 17:18:40;;;;;;;15.27;11.65;;;23.70;56.10;;;;;;5095440;28;20028;-68
2022/04/21 17:21:06;;;;;;;9.32;5.72;;;23.60;56.10;;;;;;5100312;27;20059;-72
2022/04/21 17:24:12;;;;;;;7.47;3.60;;;23.60;56.00;;;;;;5102216;28;20393;-78
2022/04/21 17:26:58;;;;;;;;;;;23.60;56.00;;;;;;5104073;28;20035;-70
2022/04/21 17:29:25;;;;;;;8.25;2.30;;;23.60;56.00;;;;;;5102254;28;19923;-67
2022/04/21 17:31:53;;;;;;;9.32;2.92;;;23.60;56.00;;;;;;5105012;28;20172;-73
2022/04/21 17:34:32;;;;;;;8.75;2.55;;;23.50;56.00;;;;;;5103775;28;20030;-68
2022/04/21 17:36:58;;;;;;;3.03;1.48;;;23.50;56.10;;;;;;5082569;28;20866;-72
2022/04/21 17:39:25;;;;;;;4.80;1.80;;;23.50;56.30;;;;;;5101702;28;20126;-71
2022/04/21 17:41:51;;;;;;;6.95;2.15;;;23.50;56.30;;;;;;5102054;28;20027;-76
2022/04/21 17:44:18;;;;;;;4.82;2.15;;;23.40;56.20;;;;;;5096727;28;20103;-77
2022/04/21 17:46:45;;;;;;;4.68;1.92;;;23.40;56.80;;;;;;5098314;28;20491;-74
2022/04/21 17:49:15;;;;;;;5.72;1.92;;;23.40;56.20;;;;;;5099583;28;20501;-72
2022/04/21 17:51:41;;;;;;;5.00;1.80;;;23.40;56.20;;;;;;5098539;28;20034;-77
2022/04/21 17:54:08;;;;;;;3.33;1.73;;;23.30;56.30;;;;;;5098820;28;20482;-70
2022/04/21 17:56:34;;;;;;;6.28;2.47;;;23.40;56.40;;;;;;5078599;28;20122;-75
2022/04/21 17:59:01;;;;;;;3.00;2.20;;;23.30;56.50;;;;;;5098823;28;20543;-76
2022/04/21 18:01:36;;;;;;;2.33;1.73;;;23.30;56.60;;;;;;5102905;28;20110;-78
2022/04/21 18:04:03;;;;;;;5.00;2.08;;;23.30;56.60;;;;;;5101363;28;20016;-76
2022/04/21 18:06:29;;;;;;;7.43;2.70;;;23.30;56.70;;;;;;5095009;28;20027;-69
2022/04/21 18:08:57;;;;;;;6.60;1.65;;;23.30;56.70;;;;;;5097093;28;20115;-68
2022/04/21 18:11:24;;;;;;;2.45;1.00;;;23.20;56.70;;;;;;5096324;28;20378;-72
2022/04/21 18:13:58;;;;;;;3.03;2.40;;;23.20;56.80;;;;;;5100898;28;20027;-73
2022/04/21 18:16:25;;;;;;;5.18;1.30;;;23.20;56.90;;;;;;5098080;28;20107;-75
2022/04/21 18:19:12;;;;;;;6.57;5.88;;;23.20;56.90;;;;;;5096162;28;20434;-72
2022/04/21 18:21:43;;;;;;;11.27;8.50;;;23.20;57.00;;;;;;5058507;28;20136;-69
2022/04/21 18:24:11;;;;;;;16.55;10.05;;;23.10;57.00;;;;;;5055445;28;20024;-74
2022/04/21 18:26:38;;;;;;;15.25;9.77;;;23.10;57.10;;;;;;5056403;28;20021;-76
2022/04/21 18:29:04;;;;;;;9.98;6.78;;;23.10;57.10;;;;;;5053927;28;20372;-76
2022/04/21 18:31:34;;;;;;;7.68;3.58;;;23.10;57.20;;;;;;5054782;28;20435;-77
2022/04/21 18:34:04;;;;;;;6.03;2.97;;;23.10;57.30;;;;;;5061477;28;20025;-74
2022/04/21 18:36:31;;;;;;;3.50;2.35;;;23.10;57.30;;;;;;5058412;28;20396;-77
2022/04/21 18:38:58;;;;;;;6.22;2.08;;;23.10;57.40;;;;;;5064954;28;20029;-76